createdAt,value
2017-07-21T00:01:27.457Z,17.93
2017-07-21T00:03:55.001Z,28.47
2017-07-21T00:06:23.314Z,22.07
2017-07-21T00:08:50.879Z,20.07
2017-07-21T00:11:18.433Z,20.93
2017-07-21T00:13:45.967Z,23.57
2017-07-21T00:16:13.569Z,23.23
2017-07-21T00:18:41.217Z,19.20
2017-07-21T00:21:08.782Z,18.67
2017-07-21T00:23:36.435Z,24.50
2017-07-21T00:26:03.991Z,26.47
2017-07-21T00:28:31.557Z,21.13
2017-07-21T00:30:59.118Z,23.17
2017-07-21T00:33:26.672Z,24.10
2017-07-21T00:35:54.214Z,21.20
2017-07-21T00:38:21.798Z,23.57
2017-07-21T00:40:49.454Z,25.33
2017-07-21T00:43:17.018Z,32.40
2017-07-21T00:45:44.541Z,19.50
2017-07-21T00:48:12.953Z,25.20
2017-07-21T00:50:40.482Z,27.03
2017-07-21T00:53:08.806Z,22.87
2017-07-21T00:55:36.457Z,21.20
2017-07-21T00:58:03.985Z,24.30
2017-07-21T01:00:31.586Z,18.43
2017-07-21T01:02:59.234Z,23.10
2017-07-21T01:05:26.895Z,21.70
2017-07-21T01:07:54.426Z,22.13
2017-07-21T01:10:21.968Z,24.10
2017-07-21T01:12:50.293Z,25.80
2017-07-21T01:15:17.956Z,23.57
2017-07-21T01:17:45.514Z,31.83
2017-07-21T01:20:13.041Z,34.53
2017-07-21T01:22:41.349Z,21.83
2017-07-21T01:25:08.922Z,20.27
2017-07-21T01:27:36.455Z,22.30
2017-07-21T01:30:04.026Z,23.10
2017-07-21T01:32:32.110Z,25.80
2017-07-21T01:34:59.638Z,24.43
2017-07-21T01:37:27.224Z,24.90
2017-07-21T01:39:54.770Z,26.67
2017-07-21T01:42:22.439Z,32.43
2017-07-21T01:44:49.961Z,27.03
2017-07-21T01:47:18.483Z,26.60
2017-07-21T01:49:46.143Z,28.17
2017-07-21T01:52:13.705Z,26.53
2017-07-21T01:54:41.275Z,21.60
2017-07-21T01:57:08.797Z,28.13
2017-07-21T01:59:36.483Z,29.03
2017-07-21T02:02:04.049Z,29.93
2017-07-21T02:04:31.606Z,32.20
2017-07-21T02:06:59.129Z,21.80
2017-07-21T02:09:27.441Z,28.50
2017-07-21T02:11:54.969Z,26.40
2017-07-21T02:14:23.260Z,25.43
2017-07-21T02:16:50.834Z,32.13
2017-07-21T02:19:18.356Z,27.83
2017-07-21T02:21:46.644Z,35.60
2017-07-21T02:24:14.190Z,36.00
2017-07-21T02:26:42.510Z,39.37
2017-07-21T02:29:10.175Z,29.43
2017-07-21T02:31:37.717Z,30.30
2017-07-21T02:34:05.302Z,23.73
2017-07-21T02:36:32.854Z,29.60
2017-07-21T02:39:00.519Z,27.77
2017-07-21T02:41:28.046Z,28.90
2017-07-21T02:43:55.572Z,26.70
2017-07-21T02:46:23.114Z,37.80
2017-07-21T02:48:50.638Z,29.87
2017-07-21T02:51:18.317Z,38.33
2017-07-21T02:53:45.973Z,42.43
2017-07-21T02:56:13.542Z,35.30
2017-07-21T02:58:41.094Z,35.47
2017-07-21T03:01:08.642Z,40.90
2017-07-21T03:03:36.169Z,34.00
2017-07-21T03:06:04.465Z,36.33
2017-07-21T03:08:32.049Z,31.40
2017-07-21T03:10:59.573Z,34.47
2017-07-21T03:13:27.881Z,29.03
2017-07-21T03:15:55.445Z,35.93
2017-07-21T03:18:23.005Z,35.67
2017-07-21T03:20:50.533Z,34.77
2017-07-21T03:23:24.061Z,28.83
2017-07-21T03:25:51.723Z,37.43
2017-07-21T03:28:19.248Z,32.50
2017-07-21T03:30:47.661Z,35.30
2017-07-21T03:33:15.325Z,33.93
2017-07-21T03:35:43.232Z,36.53
2017-07-21T03:38:10.787Z,41.53
2017-07-21T03:40:39.090Z,47.30
2017-07-21T03:43:07.383Z,39.07
2017-07-21T03:45:34.934Z,33.23
2017-07-21T03:48:03.244Z,35.70
2017-07-21T03:50:30.774Z,33.77
2017-07-21T03:52:58.321Z,31.17
2017-07-21T03:55:26.622Z,26.33
2017-07-21T03:57:54.300Z,33.77
2017-07-21T04:00:21.845Z,37.87
2017-07-21T04:02:49.377Z,34.03
2017-07-21T04:05:17.721Z,37.47
2017-07-21T04:07:45.269Z,35.80
2017-07-21T04:10:12.821Z,42.83
2017-07-21T04:12:40.357Z,36.67
2017-07-21T04:15:07.897Z,46.57
2017-07-21T04:17:36.311Z,31.00
2017-07-21T04:20:04.020Z,41.47
2017-07-21T04:22:32.208Z,37.97
2017-07-21T04:25:00.492Z,46.40
2017-07-21T04:27:28.784Z,42.67
2017-07-21T04:29:56.324Z,36.17
2017-07-21T04:32:24.744Z,31.23
2017-07-21T04:34:52.271Z,29.93
2017-07-21T04:37:20.690Z,31.33
2017-07-21T04:39:48.220Z,23.43
2017-07-21T04:42:15.754Z,24.60
2017-07-21T04:44:44.062Z,23.17
2017-07-21T04:47:11.658Z,21.00
2017-07-21T04:49:39.300Z,22.23
2017-07-21T04:52:06.840Z,32.27
2017-07-21T04:54:34.422Z,19.17
2017-07-21T04:57:01.950Z,19.40
2017-07-21T04:59:30.366Z,21.57
2017-07-21T05:01:57.894Z,20.33
2017-07-21T05:04:25.482Z,17.57
2017-07-21T05:06:53.030Z,16.13
2017-07-21T05:09:20.701Z,15.87
2017-07-21T05:11:48.265Z,15.03
2017-07-21T05:14:15.814Z,13.97
2017-07-21T05:16:43.345Z,13.00
2017-07-21T05:19:11.649Z,14.97
2017-07-21T05:21:39.189Z,12.07
2017-07-21T05:24:06.713Z,13.20
2017-07-21T05:26:34.333Z,12.50
2017-07-21T05:29:01.898Z,13.10
2017-07-21T05:31:29.430Z,12.00
2017-07-21T05:33:56.957Z,14.70
2017-07-21T05:36:24.497Z,12.97
2017-07-21T05:38:52.035Z,14.27
2017-07-21T05:41:19.590Z,16.03
2017-07-21T05:43:47.140Z,17.83
2017-07-21T05:46:14.714Z,24.00
2017-07-21T05:48:42.377Z,20.57
2017-07-21T05:51:09.919Z,15.40
2017-07-21T05:53:37.445Z,17.20
2017-07-21T05:56:05.870Z,17.77
2017-07-21T05:58:33.442Z,18.60
2017-07-21T06:01:00.966Z,17.47
2017-07-21T06:03:28.494Z,20.43
2017-07-21T06:05:56.118Z,21.17
2017-07-21T06:08:23.652Z,32.10
2017-07-21T06:10:51.329Z,22.70
2017-07-21T06:13:18.886Z,26.27
2017-07-21T06:15:46.451Z,27.90
2017-07-21T06:18:13.973Z,23.30
2017-07-21T06:20:42.286Z,25.87
2017-07-21T06:23:09.849Z,23.37
2017-07-21T06:25:37.372Z,21.90
2017-07-21T06:28:04.939Z,30.43
2017-07-21T06:30:32.469Z,23.73
2017-07-21T06:32:59.993Z,25.30
2017-07-21T06:35:27.541Z,27.90
2017-07-21T06:37:55.065Z,25.07
2017-07-21T06:40:23.361Z,29.40
2017-07-21T06:42:50.908Z,21.53
2017-07-21T06:45:18.449Z,21.77
2017-07-21T06:47:46.158Z,21.27
2017-07-21T06:50:13.706Z,21.53
2017-07-21T06:52:41.232Z,20.83
2017-07-21T06:55:09.520Z,21.43
2017-07-21T06:57:38.036Z,17.63
2017-07-21T07:00:05.573Z,19.63
2017-07-21T07:02:33.162Z,17.97
2017-07-21T07:05:00.710Z,20.13
2017-07-21T07:07:28.241Z,16.73
2017-07-21T07:09:56.534Z,19.30
2017-07-21T07:12:24.088Z,19.60
2017-07-21T07:14:51.678Z,19.53
2017-07-21T07:17:19.210Z,19.20
2017-07-21T07:19:46.893Z,17.87
2017-07-21T07:22:14.417Z,19.03
2017-07-21T07:24:42.832Z,20.23
2017-07-21T07:27:10.493Z,19.33
2017-07-21T07:29:38.017Z,20.23
2017-07-21T07:32:06.330Z,20.20
2017-07-21T07:34:33.881Z,21.43
2017-07-21T07:37:01.413Z,21.57
2017-07-21T07:39:29.701Z,20.47
2017-07-21T07:41:57.266Z,20.07
2017-07-21T07:44:24.947Z,21.77
2017-07-21T07:46:52.976Z,21.10
2017-07-21T07:49:21.404Z,20.43
2017-07-21T07:51:49.062Z,21.13
2017-07-21T07:54:16.586Z,21.57
2017-07-21T07:56:44.996Z,22.47
2017-07-21T07:59:12.661Z,19.37
2017-07-21T08:01:40.229Z,20.97
2017-07-21T08:04:07.780Z,19.93
2017-07-21T08:06:35.304Z,20.37
2017-07-21T08:09:03.599Z,19.90
2017-07-21T08:11:31.182Z,18.83
2017-07-21T08:13:58.708Z,22.57
2017-07-21T08:16:26.296Z,18.90
2017-07-21T08:18:53.961Z,22.33
2017-07-21T08:21:21.525Z,21.87
2017-07-21T08:23:49.075Z,20.10
2017-07-21T08:26:16.646Z,21.27
2017-07-21T08:28:44.169Z,21.63
2017-07-21T08:31:11.693Z,22.97
2017-07-21T08:33:39.317Z,19.83
2017-07-21T08:36:06.853Z,21.30
2017-07-21T08:38:34.381Z,19.93
2017-07-21T08:41:02.097Z,19.57
2017-07-21T08:43:29.664Z,21.33
2017-07-21T08:45:57.185Z,20.80
2017-07-21T08:48:25.599Z,19.60
2017-07-21T08:50:53.166Z,21.53
2017-07-21T08:53:20.684Z,18.87
2017-07-21T08:55:48.993Z,19.63
2017-07-21T08:58:16.523Z,19.63
2017-07-21T09:00:44.056Z,17.33
2017-07-21T09:03:11.676Z,17.70
2017-07-21T09:05:39.200Z,16.70
2017-07-21T09:08:07.508Z,16.73
2017-07-21T09:10:35.066Z,17.67
2017-07-21T09:13:02.728Z,16.00
2017-07-21T09:15:30.250Z,15.63
2017-07-21T09:17:58.570Z,16.40
2017-07-21T09:20:26.228Z,13.30
2017-07-21T09:22:53.789Z,10.40
2017-07-21T09:25:21.350Z,16.27
2017-07-21T09:27:48.877Z,14.60
2017-07-21T09:30:16.409Z,10.87
2017-07-21T09:32:44.128Z,12.30
2017-07-21T09:35:11.650Z,10.90
2017-07-21T09:37:39.961Z,11.13
2017-07-21T09:40:07.528Z,9.30
2017-07-21T09:42:35.045Z,10.83
2017-07-21T09:45:03.325Z,7.97
2017-07-21T09:47:30.924Z,11.40
2017-07-21T09:49:58.444Z,10.67
2017-07-21T09:52:25.966Z,7.97
2017-07-21T09:54:53.700Z,10.90
2017-07-21T09:57:21.216Z,8.47
2017-07-21T09:59:49.499Z,9.03
2017-07-21T10:02:17.200Z,9.37
2017-07-21T10:04:44.220Z,10.90
2017-07-21T10:07:11.740Z,9.80
2017-07-21T10:09:39.290Z,9.70
2017-07-21T10:12:06.805Z,8.10
2017-07-21T10:14:34.386Z,6.53
2017-07-21T10:17:01.934Z,7.30
2017-07-21T10:19:29.507Z,7.07
2017-07-21T10:21:57.061Z,7.27
2017-07-21T10:24:24.623Z,6.50
2017-07-21T10:26:52.193Z,5.93
2017-07-21T10:29:19.713Z,6.83
2017-07-21T10:31:47.261Z,7.80
2017-07-21T10:34:14.861Z,6.17
2017-07-21T10:36:42.427Z,5.83
2017-07-21T10:39:09.965Z,6.73
2017-07-21T10:41:37.545Z,5.90
2017-07-21T10:44:05.200Z,5.87
2017-07-21T10:46:32.733Z,6.40
2017-07-21T10:49:00.329Z,4.80
2017-07-21T10:51:27.850Z,5.00
2017-07-21T10:53:56.258Z,5.20
2017-07-21T10:56:23.784Z,4.93
2017-07-21T10:58:52.109Z,5.17
2017-07-21T11:01:19.758Z,6.13
2017-07-21T11:03:47.422Z,5.73
2017-07-21T11:06:14.938Z,4.93
2017-07-21T11:08:42.478Z,4.80
2017-07-21T11:11:09.998Z,5.07
2017-07-21T11:13:37.553Z,4.97
2017-07-21T11:16:06.243Z,6.40
2017-07-21T11:18:34.532Z,4.73
2017-07-21T11:21:03.401Z,4.43
2017-07-21T11:23:30.938Z,4.33
2017-07-21T11:25:59.809Z,7.00
2017-07-21T11:28:27.329Z,4.80
2017-07-21T11:30:54.977Z,8.20
2017-07-21T11:33:23.853Z,3.77
2017-07-21T11:35:52.725Z,4.17
2017-07-21T11:38:21.621Z,3.50
2017-07-21T11:40:50.553Z,4.30
2017-07-21T11:43:19.440Z,3.70
2017-07-21T11:45:48.333Z,3.87
2017-07-21T11:48:17.200Z,4.20
2017-07-21T11:50:46.068Z,4.33
2017-07-21T11:53:14.960Z,3.43
2017-07-21T11:55:43.824Z,3.27
2017-07-21T11:58:12.710Z,3.30
2017-07-21T12:00:41.604Z,3.22
2017-07-21T12:03:10.472Z,3.17
2017-07-21T12:05:39.336Z,3.53
2017-07-21T12:08:08.258Z,2.92
2017-07-21T12:10:36.926Z,3.03
2017-07-21T12:13:04.490Z,3.05
2017-07-21T12:15:32.028Z,2.90
2017-07-21T12:17:59.551Z,2.92
2017-07-21T12:20:27.085Z,3.47
2017-07-21T12:22:54.750Z,3.42
2017-07-21T12:25:23.046Z,3.05
2017-07-21T12:27:50.682Z,2.87
2017-07-21T12:30:18.239Z,3.35
2017-07-21T12:32:45.838Z,2.83
2017-07-21T12:35:14.182Z,3.37
2017-07-21T12:37:41.721Z,3.50
2017-07-21T12:40:09.279Z,4.20
2017-07-21T12:42:38.171Z,17.48
2017-07-21T12:45:07.077Z,2.97
2017-07-21T12:47:35.941Z,3.20
2017-07-21T12:50:04.805Z,3.20
2017-07-21T12:52:33.745Z,3.28
2017-07-21T12:55:02.621Z,2.87
2017-07-21T12:57:31.524Z,2.72
2017-07-21T13:00:00.409Z,3.20
2017-07-21T13:02:29.344Z,3.55
2017-07-21T13:04:58.212Z,3.15
2017-07-21T13:07:27.189Z,3.80
2017-07-21T13:09:56.067Z,3.53
2017-07-21T13:12:24.980Z,3.55
2017-07-21T13:14:53.956Z,3.65
2017-07-21T13:17:22.818Z,3.80
2017-07-21T13:19:50.344Z,4.07
2017-07-21T13:22:17.884Z,3.58
2017-07-21T13:24:45.410Z,3.42
2017-07-21T13:27:12.934Z,3.28
2017-07-21T13:29:41.242Z,3.75
2017-07-21T13:32:08.762Z,3.25
2017-07-21T13:34:37.063Z,3.20
2017-07-21T13:37:04.605Z,4.40
2017-07-21T13:39:32.905Z,3.20
2017-07-21T13:42:00.425Z,3.00
2017-07-21T13:44:27.961Z,2.78
2017-07-21T13:46:55.474Z,3.12
2017-07-21T13:49:24.401Z,3.90
2017-07-21T13:51:53.385Z,3.20
2017-07-21T13:54:22.293Z,3.40
2017-07-21T13:56:51.157Z,3.20
2017-07-21T13:59:20.041Z,3.58
2017-07-21T14:01:48.907Z,3.65
2017-07-21T14:04:17.780Z,3.22
2017-07-21T14:06:46.708Z,3.33
2017-07-21T14:09:15.572Z,3.47
2017-07-21T14:11:44.441Z,3.12
2017-07-21T14:14:13.320Z,4.82
2017-07-21T14:16:42.186Z,3.08
2017-07-21T14:19:09.706Z,3.12
2017-07-21T14:21:38.022Z,2.87
2017-07-21T14:24:05.578Z,3.17
2017-07-21T14:26:33.102Z,2.95
2017-07-21T14:29:01.416Z,3.15
2017-07-21T14:31:28.936Z,3.03
2017-07-21T14:33:57.807Z,3.42
2017-07-21T14:36:26.688Z,2.97
2017-07-21T14:38:55.656Z,2.97
2017-07-21T14:41:24.522Z,3.25
2017-07-21T14:43:52.198Z,2.72
2017-07-21T14:46:19.761Z,5.93
2017-07-21T14:48:47.318Z,2.70
2017-07-21T14:51:14.857Z,2.80
2017-07-21T14:53:42.389Z,2.90
2017-07-21T14:56:10.674Z,3.25
2017-07-21T14:58:39.089Z,3.15
2017-07-21T15:01:06.609Z,3.12
2017-07-21T15:03:34.925Z,2.78
2017-07-21T15:06:02.469Z,3.20
2017-07-21T15:08:30.146Z,3.53
2017-07-21T15:10:57.707Z,3.10
2017-07-21T15:13:25.247Z,2.90
2017-07-21T15:15:52.772Z,3.35
2017-07-21T15:18:21.057Z,3.05
2017-07-21T15:20:49.379Z,2.67
2017-07-21T15:23:16.905Z,3.22
2017-07-21T15:25:44.448Z,3.05
2017-07-21T15:28:12.792Z,4.07
2017-07-21T15:30:40.328Z,3.45
2017-07-21T15:33:07.844Z,5.45
2017-07-21T15:35:36.174Z,3.60
2017-07-21T15:38:03.694Z,3.30
2017-07-21T15:40:31.280Z,4.13
2017-07-21T15:42:58.842Z,3.40
2017-07-21T15:45:26.364Z,3.70
2017-07-21T15:47:55.242Z,3.93
2017-07-21T15:50:24.124Z,3.53
2017-07-21T15:52:53.177Z,4.03
2017-07-21T15:55:22.167Z,6.13
2017-07-21T15:57:49.727Z,4.27
2017-07-21T16:00:17.245Z,4.03
2017-07-21T16:02:45.533Z,5.33
2017-07-21T16:05:13.078Z,5.93
2017-07-21T16:07:41.388Z,4.77
2017-07-21T16:10:08.973Z,3.80
2017-07-21T16:12:36.513Z,3.87
2017-07-21T16:15:04.175Z,3.73
2017-07-21T16:17:31.732Z,3.53
2017-07-21T16:19:59.273Z,3.93
2017-07-21T16:22:26.789Z,4.00
2017-07-21T16:24:54.416Z,4.63
2017-07-21T16:27:21.975Z,3.60
2017-07-21T16:29:49.539Z,5.77
2017-07-21T16:32:18.405Z,4.03
2017-07-21T16:34:47.302Z,4.70
2017-07-21T16:37:16.229Z,4.80
2017-07-21T16:39:45.104Z,4.40
2017-07-21T16:42:14.084Z,6.47
2017-07-21T16:44:42.950Z,4.50
2017-07-21T16:47:11.355Z,5.47
2017-07-21T16:49:38.914Z,3.77
2017-07-21T16:52:07.811Z,9.70
2017-07-21T16:54:36.796Z,3.73
2017-07-21T16:57:06.031Z,4.57
2017-07-21T16:59:35.228Z,6.10
2017-07-21T17:02:04.205Z,4.80
2017-07-21T17:04:33.097Z,7.43
2017-07-21T17:07:02.663Z,5.77
2017-07-21T17:09:31.675Z,4.30
2017-07-21T17:12:00.666Z,3.60
2017-07-21T17:14:29.572Z,5.20
2017-07-21T17:16:58.467Z,8.90
2017-07-21T17:19:27.353Z,4.83
2017-07-21T17:21:56.230Z,4.73
2017-07-21T17:24:25.139Z,4.57
2017-07-21T17:26:54.036Z,4.00
2017-07-21T17:29:22.897Z,3.57
2017-07-21T17:31:51.773Z,4.60
2017-07-21T17:34:20.662Z,3.80
2017-07-21T17:36:49.589Z,3.57
2017-07-21T17:39:18.461Z,4.53
2017-07-21T17:41:47.511Z,3.97
2017-07-21T17:44:16.461Z,4.63
2017-07-21T17:46:45.329Z,4.70
2017-07-21T17:49:14.247Z,4.77
2017-07-21T17:51:43.118Z,3.90
2017-07-21T17:54:12.027Z,5.50
2017-07-21T17:56:40.913Z,5.90
2017-07-21T17:59:09.897Z,5.03
2017-07-21T18:01:38.803Z,6.17
2017-07-21T18:04:07.900Z,6.90
2017-07-21T18:06:36.874Z,4.33
2017-07-21T18:09:05.780Z,4.10
2017-07-21T18:11:34.770Z,5.83
2017-07-21T18:14:03.642Z,6.23
2017-07-21T18:16:32.776Z,6.00
2017-07-21T18:19:01.770Z,4.77
2017-07-21T18:21:30.669Z,4.20
2017-07-21T18:23:59.726Z,5.63
2017-07-21T18:26:28.819Z,4.53
2017-07-21T18:28:57.810Z,4.57
2017-07-21T18:31:26.673Z,4.07
2017-07-21T18:33:55.677Z,4.40
2017-07-21T18:36:24.553Z,4.47
2017-07-21T18:38:53.421Z,3.47
2017-07-21T18:41:22.470Z,4.30
2017-07-21T18:43:51.336Z,4.63
2017-07-21T18:46:20.354Z,4.87
2017-07-21T18:48:49.245Z,4.27
2017-07-21T18:51:18.112Z,4.93
2017-07-21T18:53:47.042Z,4.53
2017-07-21T18:56:15.936Z,5.13
2017-07-21T18:58:44.805Z,7.40
2017-07-21T19:01:13.669Z,5.37
2017-07-21T19:03:42.706Z,4.90
2017-07-21T19:06:12.601Z,4.50
2017-07-21T19:08:41.490Z,14.07
2017-07-21T19:11:10.402Z,35.83
2017-07-21T19:13:39.276Z,15.20
2017-07-21T19:16:08.148Z,10.27
2017-07-21T19:18:37.053Z,7.00
2017-07-21T19:21:05.920Z,5.33
2017-07-21T19:23:35.636Z,6.27
2017-07-21T19:26:04.602Z,5.20
2017-07-21T19:28:33.469Z,6.20
2017-07-21T19:31:02.449Z,5.00
2017-07-21T19:33:31.373Z,8.13
2017-07-21T19:36:00.416Z,10.37
2017-07-21T19:38:29.290Z,6.77
2017-07-21T19:40:58.217Z,9.73
2017-07-21T19:43:27.085Z,12.20
2017-07-21T19:45:55.955Z,6.00
2017-07-21T19:48:24.849Z,8.83
2017-07-21T19:50:53.708Z,5.53
2017-07-21T19:53:22.733Z,6.60
2017-07-21T19:55:51.625Z,10.57
2017-07-21T19:58:20.549Z,14.67
2017-07-21T20:00:49.523Z,11.33
2017-07-21T20:03:18.429Z,10.30
2017-07-21T20:05:47.296Z,13.00
2017-07-21T20:08:16.211Z,15.33
2017-07-21T20:10:45.140Z,17.10
2017-07-21T20:13:14.012Z,11.67
2017-07-21T20:15:42.902Z,14.60
2017-07-21T20:18:11.828Z,17.47
2017-07-21T20:20:40.792Z,11.37
2017-07-21T20:23:10.532Z,8.27
2017-07-21T20:25:39.428Z,12.37
2017-07-21T20:28:08.446Z,22.30
2017-07-21T20:30:37.360Z,10.60
2017-07-21T20:33:06.432Z,11.60
2017-07-21T20:35:35.314Z,12.93
2017-07-21T20:38:04.224Z,9.03
2017-07-21T20:40:33.216Z,15.37
2017-07-21T20:43:02.085Z,10.63
2017-07-21T20:45:30.997Z,13.33
2017-07-21T20:47:59.903Z,10.53
2017-07-21T20:50:28.769Z,13.03
2017-07-21T20:52:58.203Z,9.77
2017-07-21T20:55:27.087Z,6.87
2017-07-21T20:57:56.013Z,11.77
2017-07-21T21:00:24.959Z,7.23
2017-07-21T21:02:53.881Z,5.83
2017-07-21T21:05:22.757Z,7.83
2017-07-21T21:07:51.621Z,9.23
2017-07-21T21:10:20.529Z,8.67
2017-07-21T21:12:49.415Z,8.07
2017-07-21T21:15:18.297Z,5.07
2017-07-21T21:17:47.182Z,4.80
2017-07-21T21:20:16.092Z,3.40
2017-07-21T21:22:45.058Z,4.63
2017-07-21T21:25:14.056Z,2.60
2017-07-21T21:27:43.044Z,3.77
2017-07-21T21:30:11.944Z,4.70
2017-07-21T21:32:40.842Z,3.70
2017-07-21T21:35:09.725Z,4.60
2017-07-21T21:37:38.591Z,4.87
2017-07-21T21:40:07.513Z,4.37
2017-07-21T21:42:36.387Z,2.90
2017-07-21T21:45:05.256Z,7.43
2017-07-21T21:47:34.182Z,1.50
2017-07-21T21:50:03.162Z,1.30
2017-07-21T21:52:32.031Z,1.53
2017-07-21T21:55:01.045Z,1.90
2017-07-21T21:57:29.943Z,4.40
2017-07-21T21:59:58.821Z,3.10
2017-07-21T22:02:27.705Z,2.43
2017-07-21T22:04:56.571Z,2.83
2017-07-21T22:07:25.435Z,1.10
2017-07-21T22:09:54.333Z,1.73
2017-07-21T22:12:23.245Z,2.43
2017-07-21T22:14:52.185Z,1.83
2017-07-21T22:17:21.163Z,1.93
2017-07-21T22:19:50.025Z,2.03
2017-07-21T22:22:18.905Z,1.60
2017-07-21T22:24:47.809Z,2.33
2017-07-21T22:27:16.738Z,2.53
2017-07-21T22:29:45.636Z,2.40
2017-07-21T22:32:14.528Z,4.57
2017-07-21T22:34:43.409Z,2.30
2017-07-21T22:37:12.306Z,1.47
2017-07-21T22:39:41.281Z,1.30
2017-07-21T22:42:10.149Z,2.13
2017-07-21T22:44:39.083Z,1.40
2017-07-21T22:47:07.960Z,1.40
2017-07-21T22:49:36.860Z,2.90
2017-07-21T22:52:05.726Z,3.00
2017-07-21T22:54:34.638Z,3.63
2017-07-21T22:57:03.529Z,1.10
2017-07-21T22:59:32.399Z,3.83
2017-07-21T23:02:01.318Z,1.93
2017-07-21T23:04:30.189Z,1.83
2017-07-21T23:06:59.058Z,2.00
2017-07-21T23:09:27.947Z,2.60
2017-07-21T23:11:56.877Z,3.53
2017-07-21T23:14:25.856Z,1.97
2017-07-21T23:16:54.733Z,1.90
2017-07-21T23:19:23.605Z,1.53
2017-07-21T23:21:52.537Z,1.83
2017-07-21T23:24:21.433Z,3.83
2017-07-21T23:26:50.329Z,2.50
2017-07-21T23:29:19.304Z,1.87
2017-07-21T23:31:48.181Z,2.50
2017-07-21T23:34:17.052Z,2.80
2017-07-21T23:36:45.992Z,2.63
2017-07-21T23:39:14.892Z,1.30
2017-07-21T23:41:43.860Z,1.60
2017-07-21T23:44:12.724Z,4.70
2017-07-21T23:46:41.612Z,3.07
2017-07-21T23:49:10.483Z,1.80
2017-07-21T23:51:39.450Z,1.53
2017-07-21T23:54:08.433Z,1.73
2017-07-21T23:56:37.410Z,3.57
2017-07-21T23:59:06.322Z,3.30
